createdAt,value
2023-05-25T00:01:39.359Z,1.30
2023-05-25T00:04:06.164Z,1.30
2023-05-25T00:06:33.288Z,1.30
2023-05-25T00:08:59.977Z,1.23
2023-05-25T00:11:26.808Z,1.20
2023-05-25T00:13:53.794Z,1.20
2023-05-25T00:16:21.002Z,1.30
2023-05-25T00:18:48.827Z,1.20
2023-05-25T00:21:16.207Z,1.27
2023-05-25T00:23:43.441Z,1.30
2023-05-25T00:26:10.131Z,1.13
2023-05-25T00:28:36.791Z,1.20
2023-05-25T00:31:03.595Z,1.10
2023-05-25T00:33:30.444Z,1.20
2023-05-25T00:35:57.464Z,1.15
2023-05-25T00:38:24.283Z,1.30
2023-05-25T00:40:55.362Z,1.20
2023-05-25T00:43:22.223Z,0.93
2023-05-25T00:45:51.798Z,1.30
2023-05-25T00:48:18.669Z,1.17
2023-05-25T00:50:45.962Z,1.30
2023-05-25T00:53:14.432Z,1.20
2023-05-25T00:55:59.930Z,1.10
2023-05-25T00:58:28.197Z,1.10
2023-05-25T01:00:58.465Z,1.30
2023-05-25T01:03:29.800Z,1.30
2023-05-25T01:05:58.825Z,1.20
2023-05-25T01:08:25.871Z,1.23
2023-05-25T01:10:54.064Z,1.30
2023-05-25T01:13:21.618Z,1.10
2023-05-25T01:15:49.868Z,1.20
2023-05-25T01:18:17.997Z,1.27
2023-05-25T01:21:13.154Z,1.20
2023-05-25T01:23:46.903Z,1.10
2023-05-25T01:26:16.769Z,1.20
2023-05-25T01:28:50.387Z,1.10
2023-05-25T01:31:20.894Z,1.20
2023-05-25T01:33:52.653Z,1.10
2023-05-25T01:36:19.934Z,1.20
2023-05-25T01:38:46.902Z,0.98
2023-05-25T01:41:13.679Z,1.20
2023-05-25T01:43:40.948Z,1.10
2023-05-25T01:46:36.957Z,1.13
2023-05-25T01:49:42.241Z,1.10
2023-05-25T01:52:31.271Z,1.13
2023-05-25T01:55:05.620Z,1.15
2023-05-25T01:57:37.023Z,1.10
2023-05-25T02:00:05.108Z,1.20
2023-05-25T02:02:33.710Z,1.20
2023-05-25T02:05:01.084Z,1.10
2023-05-25T02:07:27.719Z,1.17
2023-05-25T02:09:54.418Z,1.20
2023-05-25T02:12:21.116Z,1.10
2023-05-25T02:14:48.887Z,1.10
2023-05-25T02:17:17.966Z,1.10
2023-05-25T02:19:46.656Z,1.10
2023-05-25T02:22:13.302Z,1.10
2023-05-25T02:24:39.962Z,1.08
2023-05-25T02:27:07.519Z,1.20
2023-05-25T02:29:34.274Z,1.10
2023-05-25T02:32:00.880Z,1.20
2023-05-25T02:34:27.592Z,1.10
2023-05-25T02:36:54.269Z,1.20
2023-05-25T02:39:20.883Z,1.20
2023-05-25T02:41:47.490Z,1.00
2023-05-25T02:44:14.224Z,1.10
2023-05-25T02:46:40.992Z,1.10
2023-05-25T02:49:07.724Z,1.15
2023-05-25T02:51:34.324Z,1.17
2023-05-25T02:54:01.294Z,1.15
2023-05-25T02:56:28.344Z,1.27
2023-05-25T02:58:55.017Z,1.10
2023-05-25T03:01:21.801Z,1.10
2023-05-25T03:03:52.601Z,1.10
2023-05-25T03:06:21.635Z,1.20
2023-05-25T03:08:48.443Z,1.17
2023-05-25T03:11:15.355Z,1.20
2023-05-25T03:13:41.949Z,1.13
2023-05-25T03:16:08.589Z,1.10
2023-05-25T03:18:36.191Z,1.10
2023-05-25T03:21:02.803Z,1.20
2023-05-25T03:23:29.427Z,1.20
2023-05-25T03:25:56.658Z,1.10
2023-05-25T03:28:23.269Z,1.20
2023-05-25T03:30:50.092Z,1.10
2023-05-25T03:33:16.697Z,1.30
2023-05-25T03:35:43.543Z,1.10
2023-05-25T03:38:10.531Z,1.10
2023-05-25T03:40:37.122Z,1.27
2023-05-25T03:43:03.767Z,1.20
2023-05-25T03:45:30.639Z,1.30
2023-05-25T03:47:57.323Z,1.10
2023-05-25T03:50:24.060Z,1.20
2023-05-25T03:52:50.733Z,1.40
2023-05-25T03:55:17.589Z,1.35
2023-05-25T03:57:44.215Z,1.40
2023-05-25T04:00:11.621Z,1.20
2023-05-25T04:02:38.523Z,1.38
2023-05-25T04:05:05.692Z,1.60
2023-05-25T04:07:32.354Z,1.42
2023-05-25T04:09:59.768Z,1.30
2023-05-25T04:12:27.466Z,1.40
2023-05-25T04:14:54.103Z,1.45
2023-05-25T04:17:24.949Z,1.50
2023-05-25T04:19:52.795Z,1.50
2023-05-25T04:22:19.473Z,1.60
2023-05-25T04:24:46.562Z,1.48
2023-05-25T04:27:14.408Z,1.55
2023-05-25T04:29:44.194Z,1.65
2023-05-25T04:32:10.828Z,1.63
2023-05-25T04:34:37.774Z,1.48
2023-05-25T04:37:05.722Z,1.75
2023-05-25T04:39:32.992Z,1.80
2023-05-25T04:42:01.655Z,1.90
2023-05-25T04:44:29.956Z,1.75
2023-05-25T04:46:56.887Z,1.85
2023-05-25T04:49:23.522Z,1.70
2023-05-25T04:51:50.267Z,2.08
2023-05-25T04:54:17.023Z,1.83
2023-05-25T04:56:44.001Z,2.20
2023-05-25T04:59:11.152Z,1.95
2023-05-25T05:01:44.712Z,1.88
2023-05-25T05:04:11.773Z,1.90
2023-05-25T05:06:39.510Z,2.03
2023-05-25T05:09:06.236Z,2.00
2023-05-25T05:11:32.903Z,2.30
2023-05-25T05:13:59.548Z,2.20
2023-05-25T05:16:26.295Z,1.88
2023-05-25T05:18:53.000Z,2.15
2023-05-25T05:21:21.430Z,2.28
2023-05-25T05:23:49.420Z,2.30
2023-05-25T05:26:16.103Z,2.60
2023-05-25T05:28:42.722Z,2.50
2023-05-25T05:31:09.492Z,2.28
2023-05-25T05:33:36.283Z,2.53
2023-05-25T05:36:03.849Z,2.00
2023-05-25T05:38:30.534Z,2.08
2023-05-25T05:40:57.165Z,2.10
2023-05-25T05:43:23.820Z,2.67
2023-05-25T05:45:50.456Z,3.03
2023-05-25T05:48:17.068Z,2.28
2023-05-25T05:50:43.677Z,2.47
2023-05-25T05:53:11.100Z,2.67
2023-05-25T05:55:37.759Z,2.47
2023-05-25T05:58:04.483Z,2.30
2023-05-25T06:00:31.394Z,2.70
2023-05-25T06:02:58.148Z,2.50
2023-05-25T06:05:24.916Z,2.55
2023-05-25T06:07:51.892Z,2.55
2023-05-25T06:10:18.763Z,2.90
2023-05-25T06:12:45.535Z,3.00
2023-05-25T06:15:12.248Z,2.90
2023-05-25T06:17:39.016Z,2.95
2023-05-25T06:20:06.817Z,2.88
2023-05-25T06:22:33.595Z,3.15
2023-05-25T06:25:00.930Z,3.08
2023-05-25T06:27:27.534Z,3.10
2023-05-25T06:29:54.182Z,3.20
2023-05-25T06:32:20.904Z,3.25
2023-05-25T06:34:47.695Z,3.25
2023-05-25T06:37:15.669Z,3.40
2023-05-25T06:39:43.248Z,3.65
2023-05-25T06:42:12.938Z,3.80
2023-05-25T06:44:39.632Z,3.40
2023-05-25T06:47:06.970Z,3.30
2023-05-25T06:49:33.710Z,3.30
2023-05-25T06:52:00.466Z,3.28
2023-05-25T06:54:27.553Z,2.72
2023-05-25T06:56:54.158Z,3.35
2023-05-25T06:59:20.864Z,2.70
2023-05-25T07:01:47.680Z,2.70
2023-05-25T07:04:14.795Z,3.25
2023-05-25T07:06:41.461Z,2.90
2023-05-25T07:09:08.136Z,3.38
2023-05-25T07:11:34.884Z,2.75
2023-05-25T07:14:01.555Z,3.00
2023-05-25T07:16:28.337Z,3.05
2023-05-25T07:18:55.073Z,3.00
2023-05-25T07:21:21.717Z,3.10
2023-05-25T07:23:48.357Z,3.20
2023-05-25T07:26:15.589Z,3.42
2023-05-25T07:28:42.312Z,3.05
2023-05-25T07:31:10.563Z,3.40
2023-05-25T07:33:37.246Z,3.53
2023-05-25T07:36:04.126Z,3.40
2023-05-25T07:38:30.866Z,3.55
2023-05-25T07:40:57.471Z,3.50
2023-05-25T07:43:24.167Z,3.40
2023-05-25T07:45:50.990Z,3.58
2023-05-25T07:48:17.754Z,3.60
2023-05-25T07:50:44.419Z,3.78
2023-05-25T07:53:11.129Z,3.83
2023-05-25T07:55:37.765Z,4.15
2023-05-25T07:58:04.435Z,3.60
2023-05-25T08:00:31.128Z,3.90
2023-05-25T08:02:57.895Z,4.03
2023-05-25T08:05:24.788Z,3.80
2023-05-25T08:07:51.521Z,3.83
2023-05-25T08:10:18.135Z,3.50
2023-05-25T08:12:49.608Z,3.78
2023-05-25T08:15:17.280Z,4.00
2023-05-25T08:17:44.489Z,4.28
2023-05-25T08:20:11.904Z,3.75
2023-05-25T08:22:38.627Z,4.10
2023-05-25T08:25:06.864Z,3.90
2023-05-25T08:27:35.681Z,3.65
2023-05-25T08:30:03.834Z,3.80
2023-05-25T08:32:30.533Z,3.85
2023-05-25T08:34:57.249Z,4.00
2023-05-25T08:37:24.983Z,3.72
2023-05-25T08:39:51.673Z,4.13
2023-05-25T08:42:18.325Z,3.92
2023-05-25T08:44:45.009Z,3.75
2023-05-25T08:47:12.484Z,3.70
2023-05-25T08:49:41.332Z,3.90
2023-05-25T08:52:14.584Z,3.88
2023-05-25T08:54:44.661Z,3.88
2023-05-25T08:57:20.917Z,3.67
2023-05-25T09:00:04.239Z,3.45
2023-05-25T09:02:56.554Z,3.85
2023-05-25T09:05:24.083Z,3.45
2023-05-25T09:07:51.697Z,3.78
2023-05-25T09:10:18.964Z,3.72
2023-05-25T09:12:46.791Z,3.45
2023-05-25T09:15:13.639Z,3.92
2023-05-25T09:17:41.595Z,3.65
2023-05-25T09:20:10.830Z,3.50
2023-05-25T09:22:37.545Z,3.83
2023-05-25T09:25:08.010Z,3.47
2023-05-25T09:27:39.446Z,4.03
2023-05-25T09:30:06.972Z,3.70
2023-05-25T09:32:33.798Z,3.60
2023-05-25T09:35:07.684Z,3.55
2023-05-25T09:37:35.372Z,3.50
2023-05-25T09:40:02.209Z,3.50
2023-05-25T09:42:29.561Z,3.47
2023-05-25T09:44:58.936Z,3.75
2023-05-25T09:47:27.084Z,3.50
2023-05-25T09:49:54.508Z,3.40
2023-05-25T09:52:21.162Z,3.60
2023-05-25T09:54:49.271Z,3.78
2023-05-25T09:57:16.934Z,3.92
2023-05-25T09:59:44.009Z,3.70
2023-05-25T10:02:11.083Z,3.65
2023-05-25T10:04:38.030Z,3.95
2023-05-25T10:07:05.966Z,3.72
2023-05-25T10:09:38.732Z,3.47
2023-05-25T10:12:07.174Z,3.75
2023-05-25T10:14:38.824Z,3.70
2023-05-25T10:17:10.051Z,3.90
2023-05-25T10:19:42.839Z,3.45
2023-05-25T10:22:25.513Z,3.67
2023-05-25T10:24:59.977Z,3.55
2023-05-25T10:27:33.104Z,3.45
2023-05-25T10:30:02.046Z,3.88
2023-05-25T10:32:29.952Z,4.03
2023-05-25T10:34:57.585Z,3.50
2023-05-25T10:37:28.368Z,3.80
2023-05-25T10:39:57.449Z,3.88
2023-05-25T10:42:24.875Z,4.00
2023-05-25T10:44:51.924Z,3.88
2023-05-25T10:47:19.302Z,3.72
2023-05-25T10:49:57.705Z,4.13
2023-05-25T10:52:32.087Z,4.15
2023-05-25T10:55:05.311Z,3.90
2023-05-25T11:00:06.936Z,3.33
2023-05-25T11:02:55.837Z,3.50
2023-05-25T11:05:36.037Z,3.35
2023-05-25T11:08:11.454Z,3.38
2023-05-25T11:10:50.010Z,3.22
2023-05-25T11:13:32.049Z,3.33
2023-05-25T11:16:22.002Z,3.20
2023-05-25T11:18:59.981Z,3.10
2023-05-25T11:21:27.203Z,3.17
2023-05-25T11:23:54.932Z,3.15
2023-05-25T11:26:26.216Z,3.72
2023-05-25T11:28:54.424Z,3.65
2023-05-25T11:31:34.947Z,3.90
2023-05-25T11:34:05.880Z,3.78
2023-05-25T11:36:35.484Z,3.72
2023-05-25T11:39:16.901Z,3.90
2023-05-25T11:42:02.168Z,3.97
2023-05-25T11:44:33.993Z,3.88
2023-05-25T11:47:03.358Z,3.65
2023-05-25T11:49:30.010Z,4.15
2023-05-25T11:51:57.592Z,4.10
2023-05-25T11:54:26.645Z,4.32
2023-05-25T11:56:59.959Z,4.13
2023-05-25T12:02:00.820Z,3.85
2023-05-25T12:04:29.096Z,3.88
2023-05-25T12:07:06.676Z,4.72
2023-05-25T12:09:33.972Z,4.63
2023-05-25T12:12:02.968Z,4.10
2023-05-25T12:14:30.667Z,4.57
2023-05-25T12:16:57.963Z,4.65
2023-05-25T12:19:24.874Z,4.45
2023-05-25T12:21:52.024Z,4.57
2023-05-25T12:24:19.145Z,4.40
2023-05-25T12:26:57.473Z,4.45
2023-05-25T12:29:25.791Z,3.95
2023-05-25T12:31:52.646Z,4.50
2023-05-25T12:34:20.223Z,4.53
2023-05-25T12:36:51.883Z,4.97
2023-05-25T12:39:28.968Z,4.43
2023-05-25T12:41:57.385Z,4.80
2023-05-25T12:44:27.236Z,4.13
2023-05-25T12:46:55.790Z,4.20
2023-05-25T12:49:46.737Z,3.75
2023-05-25T12:52:32.390Z,3.30
2023-05-25T12:54:59.198Z,2.83
2023-05-25T12:57:35.706Z,2.67
2023-05-25T13:00:02.382Z,2.50
2023-05-25T13:02:29.360Z,1.90
2023-05-25T13:04:56.575Z,2.03
2023-05-25T13:07:23.629Z,2.08
2023-05-25T13:09:50.326Z,2.00
2023-05-25T13:12:18.093Z,2.08
2023-05-25T13:14:44.824Z,2.20
2023-05-25T13:17:11.557Z,1.95
2023-05-25T13:19:38.506Z,1.83
2023-05-25T13:22:05.613Z,1.90
2023-05-25T13:24:32.682Z,1.70
2023-05-25T13:26:59.323Z,1.80
2023-05-25T13:29:25.981Z,1.70
2023-05-25T13:31:52.730Z,1.77
2023-05-25T13:34:19.406Z,1.52
2023-05-25T13:36:46.613Z,1.58
2023-05-25T13:39:14.722Z,1.50
2023-05-25T13:41:41.901Z,1.60
2023-05-25T13:44:08.635Z,1.65
2023-05-25T13:46:37.754Z,1.60
2023-05-25T13:49:04.525Z,1.60
2023-05-25T13:51:31.377Z,1.70
2023-05-25T13:53:57.993Z,1.70
2023-05-25T13:56:24.711Z,1.88
2023-05-25T13:58:52.003Z,1.60
2023-05-25T14:01:18.777Z,1.70
2023-05-25T14:03:45.848Z,1.65
2023-05-25T14:06:12.764Z,1.58
2023-05-25T14:08:39.485Z,1.77
2023-05-25T14:11:06.170Z,1.60
2023-05-25T14:13:33.582Z,1.90
2023-05-25T14:16:00.259Z,1.60
2023-05-25T14:18:26.966Z,1.60
2023-05-25T14:20:53.638Z,1.80
2023-05-25T14:23:20.306Z,2.00
2023-05-25T14:25:48.757Z,1.85
2023-05-25T14:28:15.911Z,2.00
2023-05-25T14:30:42.511Z,2.10
2023-05-25T14:33:14.138Z,1.90
2023-05-25T14:35:43.153Z,1.90
2023-05-25T14:38:10.282Z,1.92
2023-05-25T14:40:36.995Z,1.98
2023-05-25T14:43:03.860Z,1.63
2023-05-25T14:45:30.511Z,2.00
2023-05-25T14:48:11.837Z,2.10
2023-05-25T14:50:44.178Z,1.80
2023-05-25T14:53:11.302Z,1.85
2023-05-25T14:55:37.975Z,1.42
2023-05-25T14:58:04.666Z,1.80
2023-05-25T15:00:31.236Z,1.63
2023-05-25T15:02:58.217Z,2.00
2023-05-25T15:05:25.031Z,1.90
2023-05-25T15:07:51.645Z,1.80
2023-05-25T15:10:18.387Z,1.88
2023-05-25T15:12:45.123Z,1.90
2023-05-25T15:15:12.376Z,1.80
2023-05-25T15:17:39.047Z,1.80
2023-05-25T15:20:06.497Z,2.00
2023-05-25T15:22:33.181Z,1.80
2023-05-25T15:25:02.237Z,1.63
2023-05-25T15:27:29.344Z,2.10
2023-05-25T15:29:55.971Z,1.80
2023-05-25T15:32:22.585Z,1.80
2023-05-25T15:34:49.175Z,1.90
2023-05-25T15:37:15.829Z,1.88
2023-05-25T15:39:42.520Z,2.00
2023-05-25T15:42:09.205Z,1.73
2023-05-25T15:44:35.948Z,1.83
2023-05-25T15:47:02.620Z,1.90
2023-05-25T15:49:29.244Z,1.95
2023-05-25T15:51:55.935Z,1.92
2023-05-25T15:54:22.666Z,1.90
2023-05-25T15:56:49.320Z,1.70
2023-05-25T15:59:15.969Z,1.90
2023-05-25T16:01:42.632Z,1.95
2023-05-25T16:04:09.450Z,2.13
2023-05-25T16:06:36.988Z,1.73
2023-05-25T16:09:04.365Z,1.80
2023-05-25T16:11:33.103Z,2.20
2023-05-25T16:13:59.751Z,1.75
2023-05-25T16:16:26.448Z,1.83
2023-05-25T16:18:53.185Z,1.70
2023-05-25T16:21:19.849Z,1.70
2023-05-25T16:23:46.486Z,2.05
2023-05-25T16:26:13.146Z,1.70
2023-05-25T16:28:39.822Z,1.70
2023-05-25T16:31:06.651Z,1.50
2023-05-25T16:33:33.716Z,2.00
2023-05-25T16:36:00.812Z,1.80
2023-05-25T16:38:27.580Z,1.95
2023-05-25T16:40:54.280Z,1.55
2023-05-25T16:43:23.292Z,1.80
2023-05-25T16:45:49.965Z,1.75
2023-05-25T16:48:16.654Z,1.80
2023-05-25T16:50:43.301Z,1.80
2023-05-25T16:53:09.943Z,1.90
2023-05-25T16:55:36.577Z,1.83
2023-05-25T16:58:03.532Z,1.98
2023-05-25T17:00:30.192Z,1.90
2023-05-25T17:02:56.940Z,2.00
2023-05-25T17:05:23.579Z,1.73
2023-05-25T17:07:50.191Z,1.88
2023-05-25T17:10:16.925Z,1.85
2023-05-25T17:12:43.646Z,1.85
2023-05-25T17:15:13.538Z,1.90
2023-05-25T17:17:40.306Z,1.90
2023-05-25T17:20:07.204Z,1.98
2023-05-25T17:22:33.826Z,1.50
2023-05-25T17:25:01.830Z,1.80
2023-05-25T17:27:28.416Z,1.77
2023-05-25T17:29:55.078Z,1.45
2023-05-25T17:32:22.139Z,1.60
2023-05-25T17:34:48.865Z,1.80
2023-05-25T17:37:15.634Z,1.92
2023-05-25T17:39:42.733Z,1.73
2023-05-25T17:42:09.427Z,2.00
2023-05-25T17:44:40.171Z,1.80
2023-05-25T17:47:09.173Z,1.90
2023-05-25T17:49:37.532Z,2.00
2023-05-25T17:52:04.233Z,1.67
2023-05-25T17:54:30.888Z,1.77
2023-05-25T17:56:57.536Z,1.65
2023-05-25T17:59:24.320Z,1.92
2023-05-25T18:01:51.280Z,1.77
2023-05-25T18:04:19.704Z,1.80
2023-05-25T18:06:47.464Z,1.60
2023-05-25T18:09:14.094Z,1.80
2023-05-25T18:11:41.188Z,1.83
2023-05-25T18:14:07.912Z,1.58
2023-05-25T18:16:39.630Z,1.80
2023-05-25T18:19:07.129Z,1.70
2023-05-25T18:21:33.963Z,1.60
2023-05-25T18:24:00.593Z,1.73
2023-05-25T18:26:27.232Z,1.70
2023-05-25T18:28:53.970Z,1.77
2023-05-25T18:31:20.952Z,1.70
2023-05-25T18:33:47.656Z,1.58
2023-05-25T18:36:14.283Z,1.67
2023-05-25T18:38:40.884Z,1.65
2023-05-25T18:41:07.641Z,1.58
2023-05-25T18:43:34.261Z,1.60
2023-05-25T18:46:01.092Z,1.60
2023-05-25T18:48:27.868Z,1.60
2023-05-25T18:50:54.509Z,1.80
2023-05-25T18:53:21.344Z,1.67
2023-05-25T18:55:47.999Z,1.67
2023-05-25T18:58:14.688Z,1.60
2023-05-25T19:00:41.330Z,1.73
2023-05-25T19:03:08.117Z,1.60
2023-05-25T19:05:35.021Z,1.67
2023-05-25T19:08:01.740Z,1.83
2023-05-25T19:10:28.469Z,1.60
2023-05-25T19:12:55.156Z,1.60
2023-05-25T19:15:21.866Z,1.77
2023-05-25T19:17:48.581Z,1.80
2023-05-25T19:20:15.506Z,1.60
2023-05-25T19:22:42.579Z,1.60
2023-05-25T19:25:09.373Z,1.70
2023-05-25T19:27:35.993Z,1.80
2023-05-25T19:30:02.929Z,1.67
2023-05-25T19:32:29.665Z,1.58
2023-05-25T19:34:56.472Z,1.80
2023-05-25T19:37:23.254Z,1.50
2023-05-25T19:39:49.950Z,1.60
2023-05-25T19:42:16.668Z,1.70
2023-05-25T19:44:45.330Z,1.52
2023-05-25T19:47:12.094Z,1.55
2023-05-25T19:49:38.721Z,1.52
2023-05-25T19:52:05.719Z,1.60
2023-05-25T19:54:32.413Z,1.50
2023-05-25T19:56:59.123Z,1.70
2023-05-25T19:59:28.999Z,1.60
2023-05-25T20:01:56.828Z,1.58
2023-05-25T20:04:23.826Z,1.63
2023-05-25T20:06:50.899Z,1.60
2023-05-25T20:09:17.971Z,1.70
2023-05-25T20:11:44.649Z,1.60
2023-05-25T20:14:11.319Z,1.63
2023-05-25T20:16:37.996Z,1.60
2023-05-25T20:19:07.461Z,1.38
2023-05-25T20:21:34.661Z,1.60
2023-05-25T20:24:01.250Z,1.50
2023-05-25T20:26:27.966Z,1.42
2023-05-25T20:28:54.640Z,1.50
2023-05-25T20:31:21.506Z,1.60
2023-05-25T20:33:48.358Z,1.40
2023-05-25T20:36:15.852Z,1.75
2023-05-25T20:38:45.476Z,1.55
2023-05-25T20:41:12.349Z,1.73
2023-05-25T20:43:39.309Z,1.63
2023-05-25T20:46:08.303Z,1.58
2023-05-25T20:48:36.194Z,1.70
2023-05-25T20:51:02.809Z,1.60
2023-05-25T20:53:29.457Z,1.45
2023-05-25T20:55:57.800Z,1.65
2023-05-25T20:58:24.597Z,1.52
2023-05-25T21:00:51.343Z,1.40
2023-05-25T21:03:18.200Z,1.70
2023-05-25T21:05:46.020Z,1.50
2023-05-25T21:08:12.834Z,1.70
2023-05-25T21:10:41.158Z,1.45
2023-05-25T21:13:07.793Z,1.50
2023-05-25T21:15:34.435Z,1.58
2023-05-25T21:18:03.331Z,1.60
2023-05-25T21:20:30.268Z,1.45
2023-05-25T21:22:56.970Z,1.35
2023-05-25T21:25:23.761Z,1.50
2023-05-25T21:27:50.455Z,1.50
2023-05-25T21:30:17.180Z,1.50
2023-05-25T21:32:43.895Z,1.40
2023-05-25T21:35:10.594Z,1.50
2023-05-25T21:37:37.249Z,1.60
2023-05-25T21:40:04.070Z,1.50
2023-05-25T21:42:30.713Z,1.42
2023-05-25T21:44:57.366Z,1.45
2023-05-25T21:47:24.091Z,1.60
2023-05-25T21:49:51.000Z,1.60
2023-05-25T21:52:17.921Z,1.40
2023-05-25T21:54:44.563Z,1.52
2023-05-25T21:57:11.255Z,1.50
2023-05-25T21:59:37.830Z,1.42
2023-05-25T22:02:04.702Z,1.70
2023-05-25T22:04:31.375Z,1.58
2023-05-25T22:06:58.190Z,1.40
2023-05-25T22:09:24.837Z,1.40
2023-05-25T22:11:51.464Z,1.58
2023-05-25T22:14:18.102Z,1.50
2023-05-25T22:16:44.737Z,1.50
2023-05-25T22:19:11.415Z,1.60
2023-05-25T22:21:37.999Z,1.70
2023-05-25T22:24:04.694Z,1.50
2023-05-25T22:26:31.360Z,1.70
2023-05-25T22:28:58.098Z,1.60
2023-05-25T22:31:26.828Z,1.40
2023-05-25T22:33:53.719Z,1.55
2023-05-25T22:36:20.444Z,1.30
2023-05-25T22:38:47.021Z,1.48
2023-05-25T22:41:13.646Z,1.40
2023-05-25T22:43:40.332Z,1.50
2023-05-25T22:46:07.053Z,1.40
2023-05-25T22:48:33.777Z,1.50
2023-05-25T22:51:00.561Z,1.33
2023-05-25T22:53:27.153Z,1.40
2023-05-25T22:55:53.885Z,1.58
2023-05-25T22:58:20.499Z,1.50
2023-05-25T23:00:47.210Z,1.50
2023-05-25T23:03:14.021Z,1.55
2023-05-25T23:05:40.866Z,1.33
2023-05-25T23:08:08.575Z,1.50
2023-05-25T23:10:35.196Z,1.55
2023-05-25T23:13:02.458Z,1.38
2023-05-25T23:15:30.799Z,1.25
2023-05-25T23:17:57.508Z,1.40
2023-05-25T23:20:24.251Z,1.40
2023-05-25T23:22:50.911Z,1.42
2023-05-25T23:25:17.571Z,1.35
2023-05-25T23:27:44.280Z,1.33
2023-05-25T23:30:11.385Z,1.30
2023-05-25T23:32:38.005Z,1.50
2023-05-25T23:35:05.220Z,1.50
2023-05-25T23:37:31.860Z,1.30
2023-05-25T23:39:58.507Z,1.30
2023-05-25T23:42:28.219Z,1.40
2023-05-25T23:44:54.825Z,1.52
2023-05-25T23:47:21.488Z,1.60
2023-05-25T23:49:48.148Z,1.23
2023-05-25T23:52:14.740Z,1.30
2023-05-25T23:54:41.406Z,1.30
2023-05-25T23:57:08.097Z,1.50
2023-05-25T23:59:34.747Z,1.20
